sensor_id;sensor_type;location;lat;lon;timestamp;temperature;humidity
5408;DHT22;2727;53.582;9.946;2022-08-03T00:00:07;22.20;67.80
5408;DHT22;2727;53.582;9.946;2022-08-03T00:01:06;22.20;67.80
5408;DHT22;2727;53.582;9.946;2022-08-03T00:02:05;22.20;67.80
5408;DHT22;2727;53.582;9.946;2022-08-03T00:03:05;22.20;67.80
5408;DHT22;2727;53.582;9.946;2022-08-03T00:04:05;22.20;67.80
5408;DHT22;2727;53.582;9.946;2022-08-03T00:05:04;22.20;67.80
5408;DHT22;2727;53.582;9.946;2022-08-03T00:06:05;22.20;67.80
5408;DHT22;2727;53.582;9.946;2022-08-03T00:07:04;22.30;67.90
5408;DHT22;2727;53.582;9.946;2022-08-03T00:08:03;22.20;67.80
5408;DHT22;2727;53.582;9.946;2022-08-03T00:09:01;22.20;67.80
5408;DHT22;2727;53.582;9.946;2022-08-03T00:10:00;22.30;67.90
5408;DHT22;2727;53.582;9.946;2022-08-03T00:10:59;22.20;67.80
5408;DHT22;2727;53.582;9.946;2022-08-03T00:11:58;22.20;67.80
5408;DHT22;2727;53.582;9.946;2022-08-03T00:12:56;22.20;67.80
5408;DHT22;2727;53.582;9.946;2022-08-03T00:13:55;22.20;67.70
5408;DHT22;2727;53.582;9.946;2022-08-03T00:14:53;22.20;67.80
5408;DHT22;2727;53.582;9.946;2022-08-03T00:15:52;22.20;67.80
5408;DHT22;2727;53.582;9.946;2022-08-03T00:16:50;22.20;67.80
5408;DHT22;2727;53.582;9.946;2022-08-03T00:17:49;22.20;67.80
5408;DHT22;2727;53.582;9.946;2022-08-03T00:18:47;22.20;67.80
5408;DHT22;2727;53.582;9.946;2022-08-03T00:19:46;22.20;68.00
5408;DHT22;2727;53.582;9.946;2022-08-03T00:20:44;22.20;67.80
5408;DHT22;2727;53.582;9.946;2022-08-03T00:21:43;22.20;67.80
5408;DHT22;2727;53.582;9.946;2022-08-03T00:22:41;22.20;67.80
5408;DHT22;2727;53.582;9.946;2022-08-03T00:23:40;22.20;67.80
5408;DHT22;2727;53.582;9.946;2022-08-03T00:24:39;22.20;67.80
5408;DHT22;2727;53.582;9.946;2022-08-03T00:25:37;22.20;67.80
5408;DHT22;2727;53.582;9.946;2022-08-03T00:26:36;22.20;67.80
5408;DHT22;2727;53.582;9.946;2022-08-03T00:27:35;22.20;67.80
5408;DHT22;2727;53.582;9.946;2022-08-03T00:28:34;22.20;67.80
5408;DHT22;2727;53.582;9.946;2022-08-03T00:29:33;22.20;67.70
5408;DHT22;2727;53.582;9.946;2022-08-03T00:30:32;22.20;67.80
5408;DHT22;2727;53.582;9.946;2022-08-03T00:31:30;22.20;67.80
5408;DHT22;2727;53.582;9.946;2022-08-03T00:32:29;22.20;67.80
5408;DHT22;2727;53.582;9.946;2022-08-03T00:33:27;22.20;67.80
5408;DHT22;2727;53.582;9.946;2022-08-03T00:34:26;22.20;67.80
5408;DHT22;2727;53.582;9.946;2022-08-03T00:35:24;22.20;68.10
5408;DHT22;2727;53.582;9.946;2022-08-03T00:36:23;22.20;67.70
5408;DHT22;2727;53.582;9.946;2022-08-03T00:37:22;22.20;67.80
5408;DHT22;2727;53.582;9.946;2022-08-03T00:38:20;22.20;67.80
5408;DHT22;2727;53.582;9.946;2022-08-03T00:39:19;22.20;67.80
5408;DHT22;2727;53.582;9.946;2022-08-03T00:40:18;22.20;67.80
5408;DHT22;2727;53.582;9.946;2022-08-03T00:41:16;22.20;67.80
5408;DHT22;2727;53.582;9.946;2022-08-03T00:42:15;22.20;67.80
5408;DHT22;2727;53.582;9.946;2022-08-03T00:43:15;22.20;67.80
5408;DHT22;2727;53.582;9.946;2022-08-03T00:44:15;22.20;67.80
5408;DHT22;2727;53.582;9.946;2022-08-03T00:45:13;22.20;67.80
5408;DHT22;2727;53.582;9.946;2022-08-03T00:46:12;22.20;67.80
5408;DHT22;2727;53.582;9.946;2022-08-03T00:47:10;22.20;67.80
5408;DHT22;2727;53.582;9.946;2022-08-03T00:48:10;22.20;67.80
5408;DHT22;2727;53.582;9.946;2022-08-03T00:49:09;22.20;67.80
5408;DHT22;2727;53.582;9.946;2022-08-03T00:50:07;22.20;67.80
5408;DHT22;2727;53.582;9.946;2022-08-03T00:51:06;22.20;67.80
5408;DHT22;2727;53.582;9.946;2022-08-03T00:52:05;22.20;67.80
5408;DHT22;2727;53.582;9.946;2022-08-03T00:53:05;22.20;67.90
5408;DHT22;2727;53.582;9.946;2022-08-03T00:54:04;22.20;67.90
5408;DHT22;2727;53.582;9.946;2022-08-03T00:55:04;22.20;67.80
5408;DHT22;2727;53.582;9.946;2022-08-03T00:56:03;22.20;67.90
5408;DHT22;2727;53.582;9.946;2022-08-03T00:57:01;22.20;67.90
5408;DHT22;2727;53.582;9.946;2022-08-03T00:58:01;22.20;67.90
5408;DHT22;2727;53.582;9.946;2022-08-03T00:59:03;22.20;67.90
5408;DHT22;2727;53.582;9.946;2022-08-03T01:00:03;22.20;67.90
5408;DHT22;2727;53.582;9.946;2022-08-03T01:01:01;22.20;67.90
5408;DHT22;2727;53.582;9.946;2022-08-03T01:02:04;22.20;67.80
5408;DHT22;2727;53.582;9.946;2022-08-03T01:03:06;22.20;67.80
5408;DHT22;2727;53.582;9.946;2022-08-03T01:04:05;22.20;67.90
5408;DHT22;2727;53.582;9.946;2022-08-03T01:05:03;22.20;67.90
5408;DHT22;2727;53.582;9.946;2022-08-03T01:06:18;22.20;67.90
5408;DHT22;2727;53.582;9.946;2022-08-03T01:08:53;22.20;67.90
5408;DHT22;2727;53.582;9.946;2022-08-03T01:11:36;22.20;67.90
5408;DHT22;2727;53.582;9.946;2022-08-03T01:14:12;22.20;67.90
5408;DHT22;2727;53.582;9.946;2022-08-03T01:15:12;22.20;67.90
5408;DHT22;2727;53.582;9.946;2022-08-03T01:17:24;22.20;67.90
5408;DHT22;2727;53.582;9.946;2022-08-03T01:19:35;22.20;67.90
5408;DHT22;2727;53.582;9.946;2022-08-03T01:20:37;22.20;67.90
5408;DHT22;2727;53.582;9.946;2022-08-03T01:22:04;22.20;67.90
5408;DHT22;2727;53.582;9.946;2022-08-03T01:23:06;22.20;67.90
5408;DHT22;2727;53.582;9.946;2022-08-03T01:24:21;22.20;67.90
5408;DHT22;2727;53.582;9.946;2022-08-03T01:30:04;22.20;67.90
5408;DHT22;2727;53.582;9.946;2022-08-03T01:31:07;22.20;67.90
5408;DHT22;2727;53.582;9.946;2022-08-03T01:32:11;22.20;67.90
5408;DHT22;2727;53.582;9.946;2022-08-03T01:33:24;22.20;67.90
5408;DHT22;2727;53.582;9.946;2022-08-03T01:34:24;22.20;67.90
5408;DHT22;2727;53.582;9.946;2022-08-03T01:36:06;22.20;67.90
5408;DHT22;2727;53.582;9.946;2022-08-03T01:36:49;22.20;67.90
5408;DHT22;2727;53.582;9.946;2022-08-03T01:37:59;22.20;68.00
5408;DHT22;2727;53.582;9.946;2022-08-03T01:39:00;22.20;68.00
5408;DHT22;2727;53.582;9.946;2022-08-03T01:39:59;22.20;68.00
5408;DHT22;2727;53.582;9.946;2022-08-03T01:41:06;22.20;68.00
5408;DHT22;2727;53.582;9.946;2022-08-03T01:42:06;22.20;67.90
5408;DHT22;2727;53.582;9.946;2022-08-03T01:43:08;22.20;67.90
5408;DHT22;2727;53.582;9.946;2022-08-03T01:44:08;22.20;67.90
5408;DHT22;2727;53.582;9.946;2022-08-03T01:45:08;22.20;68.00
5408;DHT22;2727;53.582;9.946;2022-08-03T01:46:07;22.20;68.00
5408;DHT22;2727;53.582;9.946;2022-08-03T01:47:07;22.20;68.00
5408;DHT22;2727;53.582;9.946;2022-08-03T01:48:07;22.20;68.00
5408;DHT22;2727;53.582;9.946;2022-08-03T01:49:09;22.20;68.00
5408;DHT22;2727;53.582;9.946;2022-08-03T01:50:08;22.20;67.90
5408;DHT22;2727;53.582;9.946;2022-08-03T01:51:08;22.20;68.00
5408;DHT22;2727;53.582;9.946;2022-08-03T01:52:06;22.20;68.30
5408;DHT22;2727;53.582;9.946;2022-08-03T01:53:06;22.20;68.00
5408;DHT22;2727;53.582;9.946;2022-08-03T01:54:05;22.20;68.00
5408;DHT22;2727;53.582;9.946;2022-08-03T01:55:05;22.20;68.00
5408;DHT22;2727;53.582;9.946;2022-08-03T01:56:05;22.20;68.00
5408;DHT22;2727;53.582;9.946;2022-08-03T01:57:04;22.20;68.00
5408;DHT22;2727;53.582;9.946;2022-08-03T01:58:03;22.20;68.00
5408;DHT22;2727;53.582;9.946;2022-08-03T01:59:02;22.20;67.90
5408;DHT22;2727;53.582;9.946;2022-08-03T02:00:02;22.20;67.90
5408;DHT22;2727;53.582;9.946;2022-08-03T02:01:01;22.20;68.00
5408;DHT22;2727;53.582;9.946;2022-08-03T02:02:00;22.20;68.00
5408;DHT22;2727;53.582;9.946;2022-08-03T02:02:59;22.20;67.90
5408;DHT22;2727;53.582;9.946;2022-08-03T02:03:59;22.20;68.00
5408;DHT22;2727;53.582;9.946;2022-08-03T02:04:57;22.20;68.00
5408;DHT22;2727;53.582;9.946;2022-08-03T02:05:57;22.20;67.90
5408;DHT22;2727;53.582;9.946;2022-08-03T02:06:57;22.20;67.90
5408;DHT22;2727;53.582;9.946;2022-08-03T02:07:56;22.20;67.90
5408;DHT22;2727;53.582;9.946;2022-08-03T02:08:55;22.20;67.90
5408;DHT22;2727;53.582;9.946;2022-08-03T02:09:55;22.20;67.90
5408;DHT22;2727;53.582;9.946;2022-08-03T02:10:55;22.20;67.90
5408;DHT22;2727;53.582;9.946;2022-08-03T02:11:54;22.20;67.90
5408;DHT22;2727;53.582;9.946;2022-08-03T02:12:54;22.20;68.00
5408;DHT22;2727;53.582;9.946;2022-08-03T02:13:54;22.20;68.00
5408;DHT22;2727;53.582;9.946;2022-08-03T02:14:54;22.20;68.00
5408;DHT22;2727;53.582;9.946;2022-08-03T02:15:54;22.20;68.00
5408;DHT22;2727;53.582;9.946;2022-08-03T02:16:53;22.20;68.00
5408;DHT22;2727;53.582;9.946;2022-08-03T02:17:52;22.20;68.00
5408;DHT22;2727;53.582;9.946;2022-08-03T02:18:51;22.20;68.10
5408;DHT22;2727;53.582;9.946;2022-08-03T02:19:51;22.20;68.00
5408;DHT22;2727;53.582;9.946;2022-08-03T02:20:49;22.20;68.00
5408;DHT22;2727;53.582;9.946;2022-08-03T02:21:48;22.20;68.00
5408;DHT22;2727;53.582;9.946;2022-08-03T02:22:48;22.20;68.00
5408;DHT22;2727;53.582;9.946;2022-08-03T02:23:47;22.20;68.00
5408;DHT22;2727;53.582;9.946;2022-08-03T02:24:45;22.20;68.00
5408;DHT22;2727;53.582;9.946;2022-08-03T02:25:47;22.20;68.00
5408;DHT22;2727;53.582;9.946;2022-08-03T02:26:48;22.20;68.00
5408;DHT22;2727;53.582;9.946;2022-08-03T02:27:50;22.20;68.00
5408;DHT22;2727;53.582;9.946;2022-08-03T02:28:50;22.20;67.90
5408;DHT22;2727;53.582;9.946;2022-08-03T02:29:54;22.20;68.00
5408;DHT22;2727;53.582;9.946;2022-08-03T02:30:53;22.20;68.00
5408;DHT22;2727;53.582;9.946;2022-08-03T02:31:53;22.20;68.10
5408;DHT22;2727;53.582;9.946;2022-08-03T02:32:56;22.20;68.10
5408;DHT22;2727;53.582;9.946;2022-08-03T02:33:57;22.20;68.10
5408;DHT22;2727;53.582;9.946;2022-08-03T02:34:57;22.20;68.20
5408;DHT22;2727;53.582;9.946;2022-08-03T02:35:57;22.20;68.10
5408;DHT22;2727;53.582;9.946;2022-08-03T02:36:57;22.20;68.10
5408;DHT22;2727;53.582;9.946;2022-08-03T02:37:58;22.20;68.10
5408;DHT22;2727;53.582;9.946;2022-08-03T02:38:58;22.20;68.20
5408;DHT22;2727;53.582;9.946;2022-08-03T02:39:59;22.20;68.10
5408;DHT22;2727;53.582;9.946;2022-08-03T02:40:58;22.20;68.20
5408;DHT22;2727;53.582;9.946;2022-08-03T02:41:58;22.20;68.20
5408;DHT22;2727;53.582;9.946;2022-08-03T02:43:04;22.20;68.20
5408;DHT22;2727;53.582;9.946;2022-08-03T02:44:06;22.20;68.20
5408;DHT22;2727;53.582;9.946;2022-08-03T02:45:06;22.20;68.30
5408;DHT22;2727;53.582;9.946;2022-08-03T02:46:06;22.20;68.20
5408;DHT22;2727;53.582;9.946;2022-08-03T02:47:08;22.20;68.30
5408;DHT22;2727;53.582;9.946;2022-08-03T02:48:09;22.10;68.30
5408;DHT22;2727;53.582;9.946;2022-08-03T02:49:09;22.20;68.30
5408;DHT22;2727;53.582;9.946;2022-08-03T02:50:08;22.20;68.30
5408;DHT22;2727;53.582;9.946;2022-08-03T02:51:08;22.20;68.30
5408;DHT22;2727;53.582;9.946;2022-08-03T02:52:09;22.20;68.40
5408;DHT22;2727;53.582;9.946;2022-08-03T02:53:10;22.20;68.30
5408;DHT22;2727;53.582;9.946;2022-08-03T02:54:09;22.20;69.00
5408;DHT22;2727;53.582;9.946;2022-08-03T02:55:09;22.20;68.30
5408;DHT22;2727;53.582;9.946;2022-08-03T02:56:08;22.20;68.40
5408;DHT22;2727;53.582;9.946;2022-08-03T02:57:06;22.20;68.40
5408;DHT22;2727;53.582;9.946;2022-08-03T02:58:06;22.20;68.40
5408;DHT22;2727;53.582;9.946;2022-08-03T02:59:07;22.20;68.40
5408;DHT22;2727;53.582;9.946;2022-08-03T03:00:06;22.20;68.40
5408;DHT22;2727;53.582;9.946;2022-08-03T03:01:05;22.20;68.40
5408;DHT22;2727;53.582;9.946;2022-08-03T03:02:04;22.20;68.40
5408;DHT22;2727;53.582;9.946;2022-08-03T03:03:03;22.20;68.40
5408;DHT22;2727;53.582;9.946;2022-08-03T03:04:06;22.20;68.40
5408;DHT22;2727;53.582;9.946;2022-08-03T03:05:05;22.20;68.40
5408;DHT22;2727;53.582;9.946;2022-08-03T03:06:03;22.10;68.40
5408;DHT22;2727;53.582;9.946;2022-08-03T03:07:02;22.10;68.40
5408;DHT22;2727;53.582;9.946;2022-08-03T03:08:00;22.20;68.40
5408;DHT22;2727;53.582;9.946;2022-08-03T03:08:59;22.10;68.30
5408;DHT22;2727;53.582;9.946;2022-08-03T03:09:58;22.10;68.40
5408;DHT22;2727;53.582;9.946;2022-08-03T03:10:58;22.10;68.40
5408;DHT22;2727;53.582;9.946;2022-08-03T03:11:57;22.10;68.40
5408;DHT22;2727;53.582;9.946;2022-08-03T03:12:56;22.10;68.40
5408;DHT22;2727;53.582;9.946;2022-08-03T03:13:56;22.10;68.40
5408;DHT22;2727;53.582;9.946;2022-08-03T03:14:55;22.10;68.40
5408;DHT22;2727;53.582;9.946;2022-08-03T03:15:54;22.20;68.40
5408;DHT22;2727;53.582;9.946;2022-08-03T03:16:53;22.20;68.50
5408;DHT22;2727;53.582;9.946;2022-08-03T03:17:52;22.10;68.40
5408;DHT22;2727;53.582;9.946;2022-08-03T03:18:51;22.10;68.40
5408;DHT22;2727;53.582;9.946;2022-08-03T03:19:51;22.10;68.40
5408;DHT22;2727;53.582;9.946;2022-08-03T03:20:50;22.20;68.50
5408;DHT22;2727;53.582;9.946;2022-08-03T03:21:50;22.20;68.40
5408;DHT22;2727;53.582;9.946;2022-08-03T03:22:50;22.20;68.40
5408;DHT22;2727;53.582;9.946;2022-08-03T03:23:49;22.10;68.40
5408;DHT22;2727;53.582;9.946;2022-08-03T03:24:47;22.10;68.40
5408;DHT22;2727;53.582;9.946;2022-08-03T03:25:49;22.10;68.40
5408;DHT22;2727;53.582;9.946;2022-08-03T03:26:48;22.10;68.40
5408;DHT22;2727;53.582;9.946;2022-08-03T03:27:47;22.10;68.40
5408;DHT22;2727;53.582;9.946;2022-08-03T03:28:46;22.10;68.40
5408;DHT22;2727;53.582;9.946;2022-08-03T03:29:44;22.10;68.50
5408;DHT22;2727;53.582;9.946;2022-08-03T03:30:43;22.10;68.50
5408;DHT22;2727;53.582;9.946;2022-08-03T03:31:42;22.10;68.50
5408;DHT22;2727;53.582;9.946;2022-08-03T03:32:40;22.10;68.50
5408;DHT22;2727;53.582;9.946;2022-08-03T03:33:39;22.10;68.50
5408;DHT22;2727;53.582;9.946;2022-08-03T03:34:37;22.10;68.60
5408;DHT22;2727;53.582;9.946;2022-08-03T03:35:36;22.10;68.60
5408;DHT22;2727;53.582;9.946;2022-08-03T03:36:34;22.10;68.60
5408;DHT22;2727;53.582;9.946;2022-08-03T03:37:33;22.10;68.60
5408;DHT22;2727;53.582;9.946;2022-08-03T03:38:32;22.10;68.60
5408;DHT22;2727;53.582;9.946;2022-08-03T03:39:30;22.10;68.60
5408;DHT22;2727;53.582;9.946;2022-08-03T03:40:29;22.10;68.60
5408;DHT22;2727;53.582;9.946;2022-08-03T03:41:27;22.10;68.70
5408;DHT22;2727;53.582;9.946;2022-08-03T03:42:26;22.10;68.60
5408;DHT22;2727;53.582;9.946;2022-08-03T03:43:25;22.10;68.50
5408;DHT22;2727;53.582;9.946;2022-08-03T03:44:27;22.10;68.60
5408;DHT22;2727;53.582;9.946;2022-08-03T03:45:27;22.10;68.60
5408;DHT22;2727;53.582;9.946;2022-08-03T03:46:28;22.10;68.60
5408;DHT22;2727;53.582;9.946;2022-08-03T03:47:27;22.10;68.60
5408;DHT22;2727;53.582;9.946;2022-08-03T03:48:27;22.10;68.60
5408;DHT22;2727;53.582;9.946;2022-08-03T03:49:27;22.10;68.60
5408;DHT22;2727;53.582;9.946;2022-08-03T03:50:25;22.10;68.60
5408;DHT22;2727;53.582;9.946;2022-08-03T03:51:24;22.10;68.60
5408;DHT22;2727;53.582;9.946;2022-08-03T03:52:23;22.10;68.70
5408;DHT22;2727;53.582;9.946;2022-08-03T03:53:21;22.10;68.60
5408;DHT22;2727;53.582;9.946;2022-08-03T03:54:20;22.10;68.70
5408;DHT22;2727;53.582;9.946;2022-08-03T03:55:18;22.10;68.60
5408;DHT22;2727;53.582;9.946;2022-08-03T03:56:17;22.10;68.60
5408;DHT22;2727;53.582;9.946;2022-08-03T03:57:15;22.10;68.70
5408;DHT22;2727;53.582;9.946;2022-08-03T03:58:14;22.10;68.60
5408;DHT22;2727;53.582;9.946;2022-08-03T03:59:12;22.10;68.60
5408;DHT22;2727;53.582;9.946;2022-08-03T04:00:12;22.10;68.60
5408;DHT22;2727;53.582;9.946;2022-08-03T04:01:11;22.10;68.60
5408;DHT22;2727;53.582;9.946;2022-08-03T04:02:10;22.10;68.70
5408;DHT22;2727;53.582;9.946;2022-08-03T04:03:09;22.10;68.70
5408;DHT22;2727;53.582;9.946;2022-08-03T04:04:07;22.10;68.60
5408;DHT22;2727;53.582;9.946;2022-08-03T04:05:25;22.10;68.70
5408;DHT22;2727;53.582;9.946;2022-08-03T04:06:42;22.10;68.60
5408;DHT22;2727;53.582;9.946;2022-08-03T04:08:04;22.10;68.60
5408;DHT22;2727;53.582;9.946;2022-08-03T04:09:23;22.10;68.70
5408;DHT22;2727;53.582;9.946;2022-08-03T04:10:41;22.10;68.70
5408;DHT22;2727;53.582;9.946;2022-08-03T04:11:57;22.10;68.70
5408;DHT22;2727;53.582;9.946;2022-08-03T04:12:57;22.10;68.70
5408;DHT22;2727;53.582;9.946;2022-08-03T04:13:58;22.10;68.70
5408;DHT22;2727;53.582;9.946;2022-08-03T04:14:57;22.10;68.70
5408;DHT22;2727;53.582;9.946;2022-08-03T04:15:56;22.10;68.80
5408;DHT22;2727;53.582;9.946;2022-08-03T04:16:56;22.10;68.70
5408;DHT22;2727;53.582;9.946;2022-08-03T04:17:55;22.10;68.70
5408;DHT22;2727;53.582;9.946;2022-08-03T04:18:56;22.10;69.40
5408;DHT22;2727;53.582;9.946;2022-08-03T04:19:57;22.10;68.70
5408;DHT22;2727;53.582;9.946;2022-08-03T04:20:58;22.10;68.70
5408;DHT22;2727;53.582;9.946;2022-08-03T04:21:59;22.10;68.70
5408;DHT22;2727;53.582;9.946;2022-08-03T04:22:58;22.10;68.80
5408;DHT22;2727;53.582;9.946;2022-08-03T04:23:59;22.10;68.80
5408;DHT22;2727;53.582;9.946;2022-08-03T04:25:00;22.10;68.80
5408;DHT22;2727;53.582;9.946;2022-08-03T04:26:01;22.10;68.80
5408;DHT22;2727;53.582;9.946;2022-08-03T04:27:01;22.10;68.80
5408;DHT22;2727;53.582;9.946;2022-08-03T04:28:00;22.10;68.80
5408;DHT22;2727;53.582;9.946;2022-08-03T04:28:59;22.10;68.90
5408;DHT22;2727;53.582;9.946;2022-08-03T04:29:57;22.10;68.90
5408;DHT22;2727;53.582;9.946;2022-08-03T04:31:00;22.10;68.80
5408;DHT22;2727;53.582;9.946;2022-08-03T04:32:00;22.10;68.80
5408;DHT22;2727;53.582;9.946;2022-08-03T04:33:00;22.10;68.80
5408;DHT22;2727;53.582;9.946;2022-08-03T04:33:59;22.10;68.80
5408;DHT22;2727;53.582;9.946;2022-08-03T04:34:58;22.10;68.90
5408;DHT22;2727;53.582;9.946;2022-08-03T04:35:58;22.10;68.80
5408;DHT22;2727;53.582;9.946;2022-08-03T04:36:58;22.10;68.80
5408;DHT22;2727;53.582;9.946;2022-08-03T04:37:58;22.10;68.90
5408;DHT22;2727;53.582;9.946;2022-08-03T04:39:03;22.10;68.90
5408;DHT22;2727;53.582;9.946;2022-08-03T04:40:04;22.10;68.90
5408;DHT22;2727;53.582;9.946;2022-08-03T04:41:03;22.10;68.90
5408;DHT22;2727;53.582;9.946;2022-08-03T04:42:02;22.10;68.90
5408;DHT22;2727;53.582;9.946;2022-08-03T04:43:02;22.10;68.80
5408;DHT22;2727;53.582;9.946;2022-08-03T04:44:01;22.10;68.80
5408;DHT22;2727;53.582;9.946;2022-08-03T04:45:02;22.10;68.90
5408;DHT22;2727;53.582;9.946;2022-08-03T04:46:00;22.10;68.80
5408;DHT22;2727;53.582;9.946;2022-08-03T04:46:59;22.10;68.80
5408;DHT22;2727;53.582;9.946;2022-08-03T04:47:58;22.10;68.80
5408;DHT22;2727;53.582;9.946;2022-08-03T04:48:57;22.10;68.90
5408;DHT22;2727;53.582;9.946;2022-08-03T04:49:55;22.10;68.90
5408;DHT22;2727;53.582;9.946;2022-08-03T04:50:54;22.10;68.80
5408;DHT22;2727;53.582;9.946;2022-08-03T04:51:52;22.10;68.90
5408;DHT22;2727;53.582;9.946;2022-08-03T04:52:51;22.10;68.80
5408;DHT22;2727;53.582;9.946;2022-08-03T04:53:50;22.10;68.80
5408;DHT22;2727;53.582;9.946;2022-08-03T04:54:48;22.10;68.90
5408;DHT22;2727;53.582;9.946;2022-08-03T04:55:47;22.10;68.90
5408;DHT22;2727;53.582;9.946;2022-08-03T04:56:45;22.10;68.90
5408;DHT22;2727;53.582;9.946;2022-08-03T04:57:44;22.10;68.80
5408;DHT22;2727;53.582;9.946;2022-08-03T04:58:42;22.10;68.90
5408;DHT22;2727;53.582;9.946;2022-08-03T04:59:41;22.10;68.90
5408;DHT22;2727;53.582;9.946;2022-08-03T05:00:39;22.10;68.90
5408;DHT22;2727;53.582;9.946;2022-08-03T05:01:38;22.10;68.90
5408;DHT22;2727;53.582;9.946;2022-08-03T05:02:37;22.10;68.90
5408;DHT22;2727;53.582;9.946;2022-08-03T05:03:36;22.10;68.90
5408;DHT22;2727;53.582;9.946;2022-08-03T05:04:34;22.10;68.90
5408;DHT22;2727;53.582;9.946;2022-08-03T05:05:33;22.10;68.90
5408;DHT22;2727;53.582;9.946;2022-08-03T05:06:31;22.10;68.90
5408;DHT22;2727;53.582;9.946;2022-08-03T05:07:30;22.10;68.90
5408;DHT22;2727;53.582;9.946;2022-08-03T05:08:28;22.10;68.90
5408;DHT22;2727;53.582;9.946;2022-08-03T05:09:27;22.10;69.00
5408;DHT22;2727;53.582;9.946;2022-08-03T05:10:25;22.10;68.90
5408;DHT22;2727;53.582;9.946;2022-08-03T05:11:24;22.10;69.00
5408;DHT22;2727;53.582;9.946;2022-08-03T05:12:24;22.10;68.90
5408;DHT22;2727;53.582;9.946;2022-08-03T05:13:26;22.10;68.90
5408;DHT22;2727;53.582;9.946;2022-08-03T05:14:24;22.10;69.00
5408;DHT22;2727;53.582;9.946;2022-08-03T05:15:23;22.10;68.90
5408;DHT22;2727;53.582;9.946;2022-08-03T05:16:21;22.10;69.00
5408;DHT22;2727;53.582;9.946;2022-08-03T05:17:20;22.10;68.90
5408;DHT22;2727;53.582;9.946;2022-08-03T05:18:20;22.10;68.90
5408;DHT22;2727;53.582;9.946;2022-08-03T05:19:21;22.10;68.90
5408;DHT22;2727;53.582;9.946;2022-08-03T05:20:19;22.10;69.00
5408;DHT22;2727;53.582;9.946;2022-08-03T05:21:18;22.10;69.00
5408;DHT22;2727;53.582;9.946;2022-08-03T05:22:17;22.10;68.90
5408;DHT22;2727;53.582;9.946;2022-08-03T05:23:15;22.10;68.90
5408;DHT22;2727;53.582;9.946;2022-08-03T05:24:15;22.10;68.90
5408;DHT22;2727;53.582;9.946;2022-08-03T05:25:13;22.10;68.90
5408;DHT22;2727;53.582;9.946;2022-08-03T05:26:12;22.10;69.00
5408;DHT22;2727;53.582;9.946;2022-08-03T05:27:10;22.10;68.90
5408;DHT22;2727;53.582;9.946;2022-08-03T05:28:14;22.10;69.00
5408;DHT22;2727;53.582;9.946;2022-08-03T05:29:14;22.10;69.70
5408;DHT22;2727;53.582;9.946;2022-08-03T05:30:15;22.10;68.90
5408;DHT22;2727;53.582;9.946;2022-08-03T05:31:14;22.10;69.00
5408;DHT22;2727;53.582;9.946;2022-08-03T05:32:14;22.10;68.90
5408;DHT22;2727;53.582;9.946;2022-08-03T05:33:13;22.10;68.90
5408;DHT22;2727;53.582;9.946;2022-08-03T05:34:11;22.10;68.90
5408;DHT22;2727;53.582;9.946;2022-08-03T05:35:10;22.10;69.00
5408;DHT22;2727;53.582;9.946;2022-08-03T05:36:09;22.10;68.90
5408;DHT22;2727;53.582;9.946;2022-08-03T05:37:08;22.10;68.90
5408;DHT22;2727;53.582;9.946;2022-08-03T05:38:07;22.10;68.90
5408;DHT22;2727;53.582;9.946;2022-08-03T05:39:05;22.10;68.90
5408;DHT22;2727;53.582;9.946;2022-08-03T05:40:04;22.10;68.90
5408;DHT22;2727;53.582;9.946;2022-08-03T05:41:03;22.10;68.90
5408;DHT22;2727;53.582;9.946;2022-08-03T05:42:01;22.10;68.80
5408;DHT22;2727;53.582;9.946;2022-08-03T05:43:00;22.10;68.80
5408;DHT22;2727;53.582;9.946;2022-08-03T05:43:59;22.10;68.80
5408;DHT22;2727;53.582;9.946;2022-08-03T05:44:58;22.10;68.80
5408;DHT22;2727;53.582;9.946;2022-08-03T05:46:01;22.20;68.90
5408;DHT22;2727;53.582;9.946;2022-08-03T05:46:59;22.10;68.90
5408;DHT22;2727;53.582;9.946;2022-08-03T05:47:58;22.20;68.90
5408;DHT22;2727;53.582;9.946;2022-08-03T05:48:56;22.20;68.90
5408;DHT22;2727;53.582;9.946;2022-08-03T05:49:55;22.20;68.90
5408;DHT22;2727;53.582;9.946;2022-08-03T05:50:54;22.20;68.80
5408;DHT22;2727;53.582;9.946;2022-08-03T05:51:53;22.20;68.90
5408;DHT22;2727;53.582;9.946;2022-08-03T05:52:53;22.10;68.70
5408;DHT22;2727;53.582;9.946;2022-08-03T05:53:52;22.20;68.90
5408;DHT22;2727;53.582;9.946;2022-08-03T05:54:50;22.20;68.90
5408;DHT22;2727;53.582;9.946;2022-08-03T05:55:49;22.20;68.80
5408;DHT22;2727;53.582;9.946;2022-08-03T05:56:47;22.20;68.90
5408;DHT22;2727;53.582;9.946;2022-08-03T05:57:46;22.20;68.80
5408;DHT22;2727;53.582;9.946;2022-08-03T05:58:45;22.20;68.80
5408;DHT22;2727;53.582;9.946;2022-08-03T05:59:44;22.20;68.70
5408;DHT22;2727;53.582;9.946;2022-08-03T06:00:42;22.20;68.80
5408;DHT22;2727;53.582;9.946;2022-08-03T06:01:41;22.20;68.80
5408;DHT22;2727;53.582;9.946;2022-08-03T06:02:40;22.20;68.80
5408;DHT22;2727;53.582;9.946;2022-08-03T06:03:39;22.20;68.60
5408;DHT22;2727;53.582;9.946;2022-08-03T06:04:37;22.20;68.60
5408;DHT22;2727;53.582;9.946;2022-08-03T06:05:36;22.20;68.60
5408;DHT22;2727;53.582;9.946;2022-08-03T06:06:36;22.20;68.60
5408;DHT22;2727;53.582;9.946;2022-08-03T06:07:35;22.20;68.50
5408;DHT22;2727;53.582;9.946;2022-08-03T06:08:35;22.20;68.50
5408;DHT22;2727;53.582;9.946;2022-08-03T06:09:35;22.20;68.40
5408;DHT22;2727;53.582;9.946;2022-08-03T06:10:36;22.30;68.60
5408;DHT22;2727;53.582;9.946;2022-08-03T06:11:36;22.30;68.80
5408;DHT22;2727;53.582;9.946;2022-08-03T06:12:35;22.20;68.90
5408;DHT22;2727;53.582;9.946;2022-08-03T06:13:33;22.30;69.00
5408;DHT22;2727;53.582;9.946;2022-08-03T06:14:32;22.30;69.10
5408;DHT22;2727;53.582;9.946;2022-08-03T06:15:30;22.30;69.10
5408;DHT22;2727;53.582;9.946;2022-08-03T06:16:30;22.30;69.10
5408;DHT22;2727;53.582;9.946;2022-08-03T06:17:29;22.30;69.20
5408;DHT22;2727;53.582;9.946;2022-08-03T06:18:28;22.30;69.20
5408;DHT22;2727;53.582;9.946;2022-08-03T06:19:27;22.30;69.20
5408;DHT22;2727;53.582;9.946;2022-08-03T06:20:26;22.30;69.90
5408;DHT22;2727;53.582;9.946;2022-08-03T06:21:24;22.30;69.20
5408;DHT22;2727;53.582;9.946;2022-08-03T06:22:23;22.30;69.20
5408;DHT22;2727;53.582;9.946;2022-08-03T06:23:22;22.20;69.10
5408;DHT22;2727;53.582;9.946;2022-08-03T06:24:21;22.30;69.30
5408;DHT22;2727;53.582;9.946;2022-08-03T06:25:20;22.30;69.30
5408;DHT22;2727;53.582;9.946;2022-08-03T06:26:18;22.30;69.40
5408;DHT22;2727;53.582;9.946;2022-08-03T06:27:17;22.30;69.40
5408;DHT22;2727;53.582;9.946;2022-08-03T06:28:15;22.30;69.30
5408;DHT22;2727;53.582;9.946;2022-08-03T06:29:15;22.30;69.20
5408;DHT22;2727;53.582;9.946;2022-08-03T06:30:14;22.30;69.30
5408;DHT22;2727;53.582;9.946;2022-08-03T06:31:14;22.30;69.20
5408;DHT22;2727;53.582;9.946;2022-08-03T06:32:12;22.30;69.30
5408;DHT22;2727;53.582;9.946;2022-08-03T06:33:11;22.30;69.10
5408;DHT22;2727;53.582;9.946;2022-08-03T06:34:09;22.30;69.10
5408;DHT22;2727;53.582;9.946;2022-08-03T06:35:08;22.30;69.10
5408;DHT22;2727;53.582;9.946;2022-08-03T06:36:08;22.30;69.00
5408;DHT22;2727;53.582;9.946;2022-08-03T06:37:06;22.30;69.20
5408;DHT22;2727;53.582;9.946;2022-08-03T06:38:05;22.30;69.30
5408;DHT22;2727;53.582;9.946;2022-08-03T06:39:03;22.30;69.30
5408;DHT22;2727;53.582;9.946;2022-08-03T06:40:02;22.30;69.10
5408;DHT22;2727;53.582;9.946;2022-08-03T06:41:04;22.30;69.20
5408;DHT22;2727;53.582;9.946;2022-08-03T06:42:02;22.30;69.20
5408;DHT22;2727;53.582;9.946;2022-08-03T06:43:02;22.30;69.20